Milo, Iowa
Current Conditions -  °F | °C
As of 1:55 PM on Monday 24 Nov 2014 (Local Time) from KOXV Reporting Station
Light Snow Light Snow  
Wind Chill: 12°   Ceiling: 2300
Heat Index: 27°   Visibility: 10mi
Dew Point: 18°   Wind: 22mph
Humidity: 69%   Direction: 280°W
Pressure: 29.66"   Gusts: 30mph
Location:  41.29°N, 93.44°W
Report Text: KOXV 241955Z AUTO 28019G26KT 10SM -SN OVC023 M03/M08 A2966 RMK AO2
Loading
Personal Weather Stations






























Interactive Weather Map New forecast layout! Learn more

10-Day Weather Forecast

Advertisements
Track Severe Weather on mobile